| 5/5/2026 | Sanctuary Advisors LLC | 3,186 | $210K | 0.0% | -14.8% | 0.003% | |
| 5/4/2026 | Calamos Advisors LLC | 21,627 | $1.43M | 0.0% | N/A | 0.017% | |
| 5/4/2026 | Emerald Mutual Fund Advisers Trust | 135,464 | $8.93M | 0.4% | N/A | 0.109% | |
| 5/4/2026 | Emerald Advisers LLC | 198,811 | $13.10M | 0.4% | N/A | 0.160% | |
| 5/4/2026 | State of Michigan Retirement System | 29,400 | $1.94M | 0.0% | +1.7% | 0.024% | |
| 5/4/2026 | Principal Financial Group Inc. | 1,093,485 | $72.07M | 0.0% | +11.9% | 0.880% | |
| 5/4/2026 | J. Safra Sarasin Holding AG | 8,634 | $569K | 0.0% | -63.1% | 0.007% | |
| 5/1/2026 | Fifth Third Bancorp | 28,728 | $1.89M | 0.0% | +2,535.6% | 0.023% | |
| 5/1/2026 | Candriam S.C.A. | 335,208 | $22.09M | 0.1% | +128.6% | 0.270% | |
| 5/1/2026 | Sequoia Financial Advisors LLC | 3,392 | $224K | 0.0% | N/A | 0.003% | |
Get the Latest News and Ratings for CYTK and Related Stocks Enter your email address below to receive the latest news and analysts' ratings for Cytokinetics and its competitors with MarketBeat's FREE daily newsletter.
|
| 4/30/2026 | Hsbc Holdings PLC | 221,999 | $14.63M | 0.0% | +5,906.5% | 0.179% | |
| 4/30/2026 | Kestra Advisory Services LLC | 4,115 | $271K | 0.0% | +812.4% | 0.003% | |
| 4/30/2026 | Oregon Public Employees Retirement Fund | 25,115 | $1.66M | 0.0% | +2.9% | 0.020% | |
| 4/28/2026 | Abel Hall LLC | 4,050 | $267K | 0.1% | +10.5% | 0.003% | |
| 4/28/2026 | Praxis Investment Management Inc. | 3,853 | $254K | 0.0% | -5.6% | 0.003% | |
| 4/27/2026 | New York State Teachers Retirement System | 110,505 | $7.28M | 0.0% | -3.5% | 0.089% | |
| 4/25/2026 | Strs Ohio | 12,600 | $830K | 0.0% | +2.4% | 0.010% | |
| 4/24/2026 | Peregrine Capital Management LLC | 103,626 | $6.83M | 0.3% | -4.1% | 0.083% | |
| 4/23/2026 | AMI Asset Management Corp | 14,816 | $977K | 0.1% | +3.8% | 0.012% | |
| 4/23/2026 | Inspire Investing LLC | 7,822 | $516K | 0.0% | +6.7% | 0.006% | |
| 4/22/2026 | Pictet Asset Management Holding SA | 750,953 | $49.30M | 0.1% | -0.9% | 0.610% | |
| 4/22/2026 | Sterling Capital Management LLC | 3,640 | $240K | 0.0% | -40.7% | 0.003% | |
| 4/21/2026 | Louisiana State Employees Retirement System | 35,500 | $2.34M | 0.0% | N/A | 0.029% | |
| 4/16/2026 | E. Ohman J or Asset Management AB | 300,762 | $19.82M | 0.5% | -17.1% | 0.244% | |
| 3/24/2026 | Creek Drive Management Group LLC | 10,000 | $635K | 0.4% | N/A | 0.008% | |
| 3/20/2026 | Hsbc Holdings PLC | 3,696 | $235K | 0.0% | -7.7% | 0.003% | |
| 3/17/2026 | Rockefeller Capital Management L.P. | 641 | $41K | 0.0% | +842.6% | 0.001% | |
| 3/9/2026 | Corient Private Wealth LLC | 7,044 | $447K | 0.0% | +46.4% | 0.006% | |
| 2/26/2026 | Seven Fleet Capital Management LP | 10,335 | $657K | 0.5% | N/A | 0.008% | |
| 2/26/2026 | Alpine Global Management LLC | 6,000 | $381K | 0.1% | N/A | 0.005% | |
| 2/24/2026 | Pacer Advisors Inc. | 27,783 | $1.77M | 0.0% | +76.5% | 0.023% | |
| 2/19/2026 | T. Rowe Price Investment Management Inc. | 17,716,372 | $1.13B | 0.7% | -7.1% | 14.491% | |
| 2/19/2026 | Invesco Ltd. | 204,878 | $13.02M | 0.0% | +30.3% | 0.168% | |
| 2/19/2026 | Corient Private Wealth LLC | 30,184 | $1.92M | 0.0% | +527.1% | 0.025% | |
| 2/18/2026 | Creek Drive Management Group LLC | 10,000 | $635K | 0.5% | N/A | 0.008% | |
| 2/18/2026 | Vident Advisory LLC | 16,455 | $1.05M | 0.0% | +1.4% | 0.013% | |
| 2/18/2026 | State of Tennessee Department of Treasury | 37,506 | $2.37M | 0.0% | -22.6% | 0.031% | |
| 2/18/2026 | XTX Topco Ltd | 90,579 | $5.76M | 0.2% | +2,170.2% | 0.074% | |
| 2/18/2026 | VARCOV Co. | 6,013 | $382K | 0.2% | N/A | 0.005% | |
| 2/18/2026 | Virtus Investment Advisers LLC | 4,247 | $270K | 0.1% | +23.9% | 0.003% | |
|
| 2/18/2026 | Sphera Funds Management LTD. | 91,717 | $5.83M | 1.1% | -43.2% | 0.075% | |
| 2/18/2026 | Polymer Capital Management US LLC | 8,014 | $509K | 0.1% | N/A | 0.007% | |
| 2/18/2026 | Readystate Asset Management LP | 122,711 | $7.80M | 0.3% | -13.9% | 0.100% | |
| 2/18/2026 | Millennium Management LLC | 225,456 | $14.33M | 0.0% | -34.2% | 0.184% | |
| 2/18/2026 | Man Group plc | 11,587 | $736K | 0.0% | N/A | 0.009% | |
| 2/18/2026 | Inspire Investing LLC | 7,330 | $466K | 0.0% | -10.5% | 0.006% | |
| 2/18/2026 | Janus Henderson Group PLC | 256,212 | $16.28M | 0.0% | +416.9% | 0.210% | |
| 2/18/2026 | Engineers Gate Manager LP | 111,544 | $7.09M | 0.1% | N/A | 0.091% | |
| 2/18/2026 | Catalio Capital Management LP | 258,381 | $16.42M | 3.0% | -42.8% | 0.211% | |
| 2/18/2026 | Cinctive Capital Management LP | 6,562 | $417K | 0.0% | -93.8% | 0.005% | |
| 2/18/2026 | ACT Capital Management LLC | 64,500 | $4.10M | 3.3% | N/A | 0.053% | |
| 2/17/2026 | Guggenheim Capital LLC | 31,322 | $1.99M | 0.0% | +1.4% | 0.026% | |
| 2/17/2026 | Logos Global Management LP | 300,000 | $19.06M | 1.2% | N/A | 0.245% | |
| 2/17/2026 | ADAR1 Capital Management LLC | 540,166 | $34.32M | 2.5% | +4.1% | 0.442% | |
| 2/17/2026 | Pennington Partners & CO. LLC | 3,278 | $208K | 0.1% | N/A | 0.003% | |
| 2/17/2026 | AQR Capital Management LLC | 236,925 | $14.78M | 0.0% | -53.8% | 0.194% | |
| 2/17/2026 | Abel Hall LLC | 3,666 | $233K | 0.1% | N/A | 0.003% | |
| 2/17/2026 | Cetera Investment Advisers | 14,269 | $907K | 0.0% | -16.7% | 0.012% | |
| 2/17/2026 | EFG International AG | 53,265 | $3.39M | 0.1% | N/A | 0.044% | |
| 2/17/2026 | Amundi | 6,773 | $430K | 0.0% | N/A | 0.006% | |
| 2/17/2026 | Price T Rowe Associates Inc. MD | 1,930,119 | $122.64M | 0.0% | -18.5% | 1.579% | |
| 2/17/2026 | T. Rowe Price Investment Management Inc. | 9,390,404 | $596.67M | 0.6% | -50.8% | 7.681% | |
| 2/17/2026 | Rock Springs Capital Management LP | 35,853 | $2.28M | 0.1% | N/A | 0.029% | |
| 2/17/2026 | Osaic Holdings Inc. | 52,436 | $3.33M | 0.0% | -4.2% | 0.043% | |
| 2/17/2026 | Harvey Capital Management Inc. | 46,810 | $2.97M | 0.6% | +119.5% | 0.038% | |
| 2/17/2026 | Granahan Investment Management LLC | 82,121 | $5.22M | 0.2% | +53.4% | 0.067% | |
| 2/17/2026 | Kemnay Advisory Services Inc. | 428 | $27K | 0.0% | N/A | 0.000% | |
| 2/17/2026 | State of Wisconsin Investment Board | 68,633 | $4.36M | 0.0% | -8.4% | 0.056% | |
| 2/17/2026 | Captrust Financial Advisors | 4,649 | $295K | 0.0% | N/A | 0.004% | |
| 2/17/2026 | Fred Alger Management LLC | 10,563 | $671K | 0.0% | -80.7% | 0.009% | |
| 2/17/2026 | &PARTNERS | 3,636 | $231K | 0.0% | N/A | 0.003% | |
| 2/17/2026 | Melqart Asset Management UK Ltd | 622,898 | $39.58M | 3.9% | -20.5% | 0.509% | |
| 2/17/2026 | ExodusPoint Capital Management LP | 343,144 | $21.80M | 0.2% | N/A | 0.281% | |
| 2/17/2026 | Persistent Asset Partners Ltd | 3,214 | $204K | 0.1% | N/A | 0.003% | |
| 2/17/2026 | Cynosure Group LLC | 7,354 | $467K | 0.0% | -29.1% | 0.006% | |
| 2/16/2026 | Thornburg Investment Management Inc. | 82,398 | $5.24M | 0.1% | -2.7% | 0.067% | |
| 2/16/2026 | Vanguard Personalized Indexing Management LLC | 20,725 | $1.32M | 0.0% | +14.6% | 0.017% | |
| 2/16/2026 | MML Investors Services LLC | 4,842 | $308K | 0.0% | N/A | 0.004% | |
| 2/16/2026 | Nicholas Investment Partners LP | 70,240 | $4.46M | 0.3% | +13.1% | 0.057% | |
| 2/16/2026 | First Turn Management LLC | 325,668 | $20.69M | 2.4% | +27.8% | 0.266% | |
| 2/16/2026 | Frazier Life Sciences Management L.P. | 934,642 | $59.39M | 1.6% | +5.0% | 0.764% | |
| 2/16/2026 | Kennedy Capital Management LLC | 13,183 | $838K | 0.0% | +1.2% | 0.011% | |
| 2/16/2026 | Eventide Asset Management LLC | 479,611 | $30.47M | 0.5% | +181.9% | 0.392% | |
| 2/16/2026 | Brown Advisory Inc. | 731,154 | $46.46M | 0.1% | -19.8% | 0.598% | |
| 2/16/2026 | Aigen Investment Management LP | 5,568 | $354K | 0.1% | N/A | 0.005% | |
| 2/13/2026 | Kestra Advisory Services LLC | 451 | $29K | 0.0% | N/A | 0.000% | |
| 2/13/2026 | Marshall Wace LLP | 337,031 | $21.42M | 0.0% | +88.3% | 0.276% | |
| 2/13/2026 | The Manufacturers Life Insurance Company | 190,807 | $11.96M | 0.0% | -0.6% | 0.156% | |
| 2/13/2026 | Quinn Opportunity Partners LLC | 38,082 | $2.42M | 0.1% | -86.1% | 0.031% | |
| 2/13/2026 | CANADA LIFE ASSURANCE Co | 66,203 | $4.21M | 0.0% | -15.7% | 0.054% | |
|
| 2/13/2026 | Segall Bryant & Hamill LLC | 189,513 | $12.04M | 0.2% | +4.7% | 0.155% | |
| 2/13/2026 | Affinity Asset Advisors LLC | 800,000 | $50.83M | 2.9% | +128.6% | 0.654% | |
| 2/13/2026 | Stifel Financial Corp | 47,971 | $3.05M | 0.0% | +7.5% | 0.039% | |
| 2/13/2026 | Hudson Bay Capital Management LP | 175,350 | $11.14M | 0.0% | -3.7% | 0.143% | |
| 2/13/2026 | Commerce Bank | 3,967 | $252K | 0.0% | N/A | 0.003% | |
| 2/13/2026 | Smartleaf Asset Management LLC | 1,458 | $89K | 0.0% | +218.3% | 0.001% | |
| 2/13/2026 | Bridgefront Capital LLC | 9,484 | $603K | 0.2% | -8.9% | 0.008% | |
| 2/13/2026 | Exome Asset Management LLC | 124,749 | $7.93M | 3.8% | -12.4% | 0.102% | |
| 2/13/2026 | Rafferty Asset Management LLC | 98,541 | $6.26M | 0.0% | -5.3% | 0.081% | |
| 2/13/2026 | First Trust Advisors LP | 127,524 | $8.10M | 0.0% | N/A | 0.104% | |